createdAt,value
2023-04-17T00:00:50.148Z,7279.00
2023-04-17T00:01:50.261Z,7165.00
2023-04-17T00:02:50.355Z,7054.00
2023-04-17T00:03:50.303Z,7021.00
2023-04-17T00:04:50.457Z,7051.00
2023-04-17T00:05:50.433Z,6991.00
2023-04-17T00:06:50.488Z,7073.00
2023-04-17T00:07:50.543Z,7177.00
2023-04-17T00:08:50.592Z,7243.00
2023-04-17T00:09:50.606Z,7358.00
2023-04-17T00:10:57.002Z,7368.00
2023-04-17T00:11:51.646Z,7371.00
2023-04-17T00:12:50.690Z,7395.00
2023-04-17T00:13:50.627Z,7475.00
2023-04-17T00:14:50.631Z,7477.00
2023-04-17T00:15:50.641Z,7395.00
2023-04-17T00:16:50.760Z,7297.00
2023-04-17T00:17:50.723Z,7229.00
2023-04-17T00:18:50.590Z,7294.00
2023-04-17T00:19:50.646Z,7342.00
2023-04-17T00:20:50.677Z,7387.00
2023-04-17T00:21:50.742Z,7377.00
2023-04-17T00:22:50.890Z,7319.00
2023-04-17T00:23:50.824Z,7337.00
2023-04-17T00:24:50.909Z,7352.00
2023-04-17T00:25:50.927Z,7482.00
2023-04-17T00:26:50.948Z,7548.00
2023-04-17T00:27:51.066Z,7751.00
2023-04-17T00:28:51.062Z,7839.00
2023-04-17T00:29:51.100Z,7834.00
2023-04-17T00:30:51.153Z,7591.00
2023-04-17T00:31:51.227Z,7433.00
2023-04-17T00:32:51.263Z,7255.00
2023-04-17T00:33:51.178Z,7182.00
2023-04-17T00:34:51.724Z,7109.00
2023-04-17T00:35:51.208Z,7073.00
2023-04-17T00:36:51.228Z,7004.00
2023-04-17T00:37:51.272Z,6981.00
2023-04-17T00:38:51.298Z,6975.00
2023-04-17T00:39:51.322Z,6984.00
2023-04-17T00:40:51.325Z,6919.00
2023-04-17T00:41:51.316Z,6987.00
2023-04-17T00:42:51.898Z,7084.00
2023-04-17T00:43:51.325Z,7089.00
2023-04-17T00:44:51.317Z,7058.00
2023-04-17T00:45:51.379Z,7000.00
2023-04-17T00:46:51.390Z,7014.00
2023-04-17T00:47:51.449Z,7082.00
2023-04-17T00:48:51.389Z,7069.00
2023-04-17T00:49:51.376Z,7073.00
2023-04-17T00:50:51.431Z,7123.00
2023-04-17T00:51:51.414Z,7108.00
2023-04-17T00:52:51.419Z,7082.00
2023-04-17T00:53:51.440Z,7071.00
2023-04-17T00:54:51.435Z,7061.00
2023-04-17T00:55:51.441Z,7065.00
2023-04-17T00:56:51.453Z,7103.00
2023-04-17T00:57:51.443Z,7151.00
2023-04-17T00:58:51.508Z,7155.00
2023-04-17T00:59:51.475Z,7226.00
2023-04-17T01:00:51.474Z,7239.00
2023-04-17T01:01:51.580Z,7263.00
2023-04-17T01:02:51.679Z,7281.00
2023-04-17T01:03:51.604Z,7346.00
2023-04-17T01:04:51.554Z,7347.00
2023-04-17T01:05:51.506Z,7401.00
2023-04-17T01:06:51.554Z,7394.00
2023-04-17T01:07:51.603Z,7399.00
2023-04-17T01:08:51.582Z,7364.00
2023-04-17T01:09:51.546Z,7382.00
2023-04-17T01:10:51.558Z,7370.00
2023-04-17T01:11:51.657Z,7342.00
2023-04-17T01:12:51.581Z,7315.00
2023-04-17T01:13:51.647Z,7307.00
2023-04-17T01:14:51.583Z,7390.00
2023-04-17T01:15:51.992Z,7464.00
2023-04-17T01:16:51.649Z,7443.00
2023-04-17T01:17:51.703Z,7356.00
2023-04-17T01:18:51.650Z,7457.00
2023-04-17T01:19:51.648Z,7438.00
2023-04-17T01:20:51.671Z,7254.00
2023-04-17T01:21:51.702Z,7160.00
2023-04-17T01:22:51.846Z,7153.00
2023-04-17T01:23:51.890Z,7105.00
2023-04-17T01:24:51.884Z,7044.00
2023-04-17T01:25:52.834Z,6989.00
2023-04-17T01:26:51.949Z,7034.00
2023-04-17T01:27:51.971Z,7073.00
2023-04-17T01:28:52.055Z,7106.00
2023-04-17T01:29:52.089Z,7112.00
2023-04-17T01:30:52.289Z,7127.00
2023-04-17T01:31:52.147Z,7121.00
2023-04-17T01:32:52.237Z,7133.00
2023-04-17T01:33:52.270Z,7159.00
2023-04-17T01:34:52.269Z,7203.00
2023-04-17T01:35:52.345Z,7245.00
2023-04-17T01:36:52.389Z,7325.00
2023-04-17T01:37:52.456Z,7377.00
2023-04-17T01:38:52.438Z,7466.00
2023-04-17T01:39:52.482Z,7543.00
2023-04-17T01:40:52.512Z,7656.00
2023-04-17T01:41:52.521Z,7712.00
2023-04-17T01:42:52.552Z,7686.00
2023-04-17T01:43:52.525Z,7547.00
2023-04-17T01:44:52.516Z,7392.00
2023-04-17T01:45:52.532Z,7284.00
2023-04-17T01:46:52.573Z,7192.00
2023-04-17T01:47:52.674Z,7258.00
2023-04-17T01:48:52.633Z,7341.00
2023-04-17T01:49:52.642Z,7349.00
2023-04-17T01:50:52.656Z,7420.00
2023-04-17T01:51:52.658Z,7480.00
2023-04-17T01:52:52.669Z,7525.00
2023-04-17T01:53:52.711Z,7548.00
2023-04-17T01:54:52.687Z,7546.00
2023-04-17T01:55:52.693Z,7549.00
2023-04-17T01:56:52.729Z,7601.00
2023-04-17T01:57:52.801Z,7633.00
2023-04-17T01:58:52.799Z,7630.00
2023-04-17T01:59:52.819Z,7512.00
2023-04-17T02:00:52.835Z,7415.00
2023-04-17T02:01:52.912Z,7175.00
2023-04-17T02:02:53.102Z,7151.00
2023-04-17T02:03:53.182Z,7104.00
2023-04-17T02:04:52.913Z,7006.00
2023-04-17T02:05:53.001Z,7018.00
2023-04-17T02:06:53.033Z,6886.00
2023-04-17T02:07:53.115Z,6870.00
2023-04-17T02:08:53.133Z,7032.00
2023-04-17T02:09:53.197Z,6985.00
2023-04-17T02:10:53.197Z,6889.00
2023-04-17T02:11:53.260Z,6958.00
2023-04-17T02:12:53.309Z,7069.00
2023-04-17T02:13:53.338Z,7089.00
2023-04-17T02:14:53.389Z,7047.00
2023-04-17T02:15:53.443Z,7012.00
2023-04-17T02:16:53.500Z,6970.00
2023-04-17T02:17:53.609Z,6943.00
2023-04-17T02:18:53.610Z,6975.00
2023-04-17T02:19:53.630Z,6979.00
2023-04-17T02:20:53.683Z,7042.00
2023-04-17T02:21:53.683Z,7089.00
2023-04-17T02:22:53.753Z,7045.00
2023-04-17T02:23:53.801Z,7052.00
2023-04-17T02:24:53.848Z,7056.00
2023-04-17T02:25:53.920Z,7157.00
2023-04-17T02:26:53.977Z,6870.00
2023-04-17T02:27:54.074Z,6837.00
2023-04-17T02:28:54.019Z,6926.00
2023-04-17T02:29:54.026Z,6906.00
2023-04-17T02:30:54.145Z,6975.00
2023-04-17T02:31:54.165Z,7021.00
2023-04-17T02:32:54.237Z,7048.00
2023-04-17T02:33:54.225Z,6979.00
2023-04-17T02:34:54.268Z,7335.00
2023-04-17T02:35:54.297Z,7630.00
2023-04-17T02:36:54.416Z,7451.00
2023-04-17T02:37:54.414Z,7245.00
2023-04-17T02:38:54.444Z,7088.00
2023-04-17T02:39:54.441Z,7051.00
2023-04-17T02:40:54.420Z,7036.00
2023-04-17T02:41:54.426Z,7014.00
2023-04-17T02:42:54.481Z,6992.00
2023-04-17T02:43:54.527Z,7025.00
2023-04-17T02:44:54.561Z,7039.00
2023-04-17T02:45:54.611Z,6952.00
2023-04-17T02:46:54.662Z,6904.00
2023-04-17T02:47:54.763Z,6940.00
2023-04-17T02:48:54.692Z,6837.00
2023-04-17T02:49:55.748Z,6873.00
2023-04-17T02:50:54.840Z,6893.00
2023-04-17T02:51:54.856Z,6818.00
2023-04-17T02:52:54.946Z,6887.00
2023-04-17T02:53:54.989Z,6975.00
2023-04-17T02:54:55.039Z,7026.00
2023-04-17T02:55:55.105Z,7126.00
2023-04-17T02:56:55.159Z,7044.00
2023-04-17T02:57:55.223Z,7027.00
2023-04-17T02:58:55.315Z,7049.00
2023-04-17T02:59:55.416Z,7089.00
2023-04-17T03:00:55.511Z,7124.00
2023-04-17T03:01:55.551Z,7198.00
2023-04-17T03:02:55.715Z,7217.00
2023-04-17T03:03:55.829Z,7198.00
2023-04-17T03:04:55.633Z,7199.00
2023-04-17T03:05:55.656Z,7155.00
2023-04-17T03:06:55.688Z,7118.00
2023-04-17T03:07:55.787Z,7029.00
2023-04-17T03:08:55.789Z,6947.00
2023-04-17T03:09:55.850Z,6833.00
2023-04-17T03:10:55.864Z,6721.00
2023-04-17T03:11:55.927Z,6645.00
2023-04-17T03:12:55.990Z,6697.00
2023-04-17T03:13:56.000Z,6752.00
2023-04-17T03:14:56.075Z,6764.00
2023-04-17T03:15:56.120Z,6802.00
2023-04-17T03:16:56.250Z,6915.00
2023-04-17T03:17:56.305Z,6916.00
2023-04-17T03:18:56.287Z,6883.00
2023-04-17T03:19:56.388Z,6845.00
2023-04-17T03:20:56.479Z,6695.00
2023-04-17T03:21:56.492Z,6651.00
2023-04-17T03:22:56.581Z,6714.00
2023-04-17T03:23:56.625Z,6742.00
2023-04-17T03:24:56.637Z,6621.00
2023-04-17T03:25:57.010Z,6508.00
2023-04-17T03:26:56.757Z,6513.00
2023-04-17T03:27:56.847Z,6371.00
2023-04-17T03:28:56.856Z,6328.00
2023-04-17T03:29:56.971Z,6283.00
2023-04-17T03:30:56.985Z,6351.00
2023-04-17T03:31:57.044Z,6411.00
2023-04-17T03:32:57.194Z,6429.00
2023-04-17T03:33:57.072Z,6410.00
2023-04-17T03:34:57.090Z,6465.00
2023-04-17T03:35:57.124Z,6500.00
2023-04-17T03:36:57.148Z,6490.00
2023-04-17T03:37:57.328Z,6549.00
2023-04-17T03:38:57.256Z,6620.00
2023-04-17T03:39:57.299Z,6650.00
2023-04-17T03:40:57.322Z,6725.00
2023-04-17T03:41:57.397Z,6803.00
2023-04-17T03:42:57.430Z,6782.00
2023-04-17T03:43:57.496Z,6754.00
2023-04-17T03:44:57.571Z,6794.00
2023-04-17T03:45:57.721Z,6875.00
2023-04-17T03:46:57.637Z,6855.00
2023-04-17T03:47:57.690Z,6887.00
2023-04-17T03:48:57.657Z,6955.00
2023-04-17T03:49:57.681Z,6893.00
2023-04-17T03:50:57.690Z,6874.00
2023-04-17T03:51:57.730Z,6939.00
2023-04-17T03:52:57.719Z,7009.00
2023-04-17T03:53:57.758Z,7057.00
2023-04-17T03:54:57.768Z,6984.00
2023-04-17T03:55:57.837Z,6993.00
2023-04-17T03:56:57.925Z,7037.00
2023-04-17T03:57:57.982Z,7001.00
2023-04-17T03:58:58.011Z,7101.00
2023-04-17T03:59:58.086Z,7123.00
2023-04-17T04:00:58.164Z,7085.00
2023-04-17T04:01:58.375Z,6940.00
2023-04-17T04:02:58.383Z,6998.00
2023-04-17T04:03:58.432Z,7138.00
2023-04-17T04:04:58.405Z,7100.00
2023-04-17T04:05:58.458Z,7108.00
2023-04-17T04:06:58.546Z,6995.00
2023-04-17T04:07:58.633Z,6982.00
2023-04-17T04:08:58.643Z,6806.00
2023-04-17T04:09:58.674Z,6886.00
2023-04-17T04:10:58.772Z,6932.00
2023-04-17T04:11:58.829Z,7032.00
2023-04-17T04:12:58.892Z,7120.00
2023-04-17T04:13:58.964Z,6983.00
2023-04-17T04:14:59.007Z,6826.00
2023-04-17T04:15:59.117Z,6838.00
2023-04-17T04:16:59.108Z,7034.00
2023-04-17T04:17:59.200Z,7243.00
2023-04-17T04:18:59.186Z,7329.00
2023-04-17T04:19:59.249Z,7312.00
2023-04-17T04:20:59.321Z,7320.00
2023-04-17T04:21:59.370Z,7325.00
2023-04-17T04:22:59.781Z,7207.00
2023-04-17T04:23:59.388Z,7184.00
2023-04-17T04:24:59.442Z,7263.00
2023-04-17T04:25:59.466Z,7389.00
2023-04-17T04:26:59.516Z,7538.00
2023-04-17T04:27:59.589Z,7393.00
2023-04-17T04:28:59.714Z,7302.00
2023-04-17T04:29:59.702Z,7205.00
2023-04-17T04:30:59.756Z,6978.00
2023-04-17T04:31:59.830Z,6837.00
2023-04-17T04:32:59.910Z,6836.00
2023-04-17T04:33:59.870Z,6952.00
2023-04-17T04:34:59.938Z,7056.00
2023-04-17T04:35:59.964Z,7076.00
2023-04-17T04:36:59.974Z,6875.00
2023-04-17T04:38:00.113Z,6791.00
2023-04-17T04:39:00.119Z,6750.00
2023-04-17T04:40:00.133Z,6723.00
2023-04-17T04:41:00.200Z,6767.00
2023-04-17T04:42:00.216Z,6780.00
2023-04-17T04:43:00.374Z,6783.00
2023-04-17T04:44:00.334Z,6861.00
2023-04-17T04:45:00.383Z,7026.00
2023-04-17T04:46:00.477Z,7066.00
2023-04-17T04:47:00.661Z,7156.00
2023-04-17T04:48:00.627Z,7158.00
2023-04-17T04:49:00.632Z,7149.00
2023-04-17T04:50:00.695Z,7236.00
2023-04-17T04:51:00.702Z,7260.00
2023-04-17T04:52:00.742Z,7211.00
2023-04-17T04:53:00.822Z,7183.00
2023-04-17T04:54:00.871Z,7186.00
2023-04-17T04:55:00.844Z,7076.00
2023-04-17T04:56:00.860Z,7150.00
2023-04-17T04:57:00.934Z,7155.00
2023-04-17T04:58:00.939Z,7125.00
2023-04-17T04:59:00.969Z,7140.00
2023-04-17T05:00:00.949Z,7142.00
2023-04-17T05:02:28.597Z,500.00
2023-04-17T05:03:21.065Z,500.00
2023-04-17T05:04:20.589Z,500.00
2023-04-17T05:05:20.508Z,500.00
2023-04-17T05:06:20.544Z,500.00
2023-04-17T05:07:20.582Z,500.00
2023-04-17T05:08:20.588Z,501.00
2023-04-17T05:09:20.536Z,503.00
2023-04-17T05:10:20.520Z,500.00
2023-04-17T05:11:20.496Z,498.00
2023-04-17T05:12:20.518Z,500.00
2023-04-17T05:13:20.565Z,498.00
2023-04-17T05:14:20.556Z,502.00
2023-04-17T05:15:20.646Z,514.00
2023-04-17T05:16:20.652Z,537.00
2023-04-17T05:17:20.740Z,521.00
2023-04-17T05:18:20.682Z,544.00
2023-04-17T05:19:20.708Z,540.00
2023-04-17T05:20:20.709Z,539.00
2023-04-17T05:21:20.799Z,578.00
2023-04-17T05:22:20.782Z,576.00
2023-04-17T05:23:20.932Z,567.00
2023-04-17T05:24:20.814Z,564.00
2023-04-17T05:25:20.868Z,578.00
2023-04-17T05:26:20.751Z,620.00
2023-04-17T05:27:20.808Z,611.00
2023-04-17T05:28:20.982Z,596.00
2023-04-17T05:29:20.924Z,580.00
2023-04-17T05:30:20.914Z,591.00
2023-04-17T05:31:21.000Z,630.00
2023-04-17T05:32:21.026Z,625.00
2023-04-17T05:33:21.256Z,650.00
2023-04-17T05:34:20.961Z,631.00
2023-04-17T05:35:20.953Z,631.00
2023-04-17T05:36:21.242Z,629.00
2023-04-17T05:37:20.938Z,602.00
2023-04-17T05:38:21.389Z,590.00
2023-04-17T05:39:21.637Z,560.00
2023-04-17T05:40:21.634Z,489.00
2023-04-17T05:41:21.284Z,501.00
2023-04-17T05:42:21.153Z,500.00
2023-04-17T05:43:21.697Z,551.00
2023-04-17T05:44:21.723Z,523.00
2023-04-17T05:46:29.200Z,516.00
2023-04-17T05:47:21.359Z,517.00
2023-04-17T05:48:21.680Z,519.00
2023-04-17T05:49:21.940Z,500.00
2023-04-17T05:50:21.603Z,522.00
2023-04-17T05:51:21.378Z,515.00
2023-04-17T05:52:21.430Z,523.00
2023-04-17T05:53:21.433Z,515.00
2023-04-17T05:54:21.352Z,400.00
2023-04-17T05:55:21.241Z,400.00
2023-04-17T05:56:21.325Z,400.00
2023-04-17T05:57:21.345Z,400.00
2023-04-17T05:58:24.429Z,400.00
2023-04-17T05:59:21.221Z,400.00
2023-04-17T06:00:22.536Z,400.00
2023-04-17T06:01:21.476Z,400.00
2023-04-17T06:02:21.400Z,400.00
2023-04-17T06:03:21.513Z,400.00
2023-04-17T06:04:21.582Z,400.00
2023-04-17T06:05:21.415Z,400.00
2023-04-17T06:06:21.278Z,400.00
2023-04-17T06:07:21.311Z,402.00
2023-04-17T06:08:21.335Z,410.00
2023-04-17T06:09:21.299Z,402.00
2023-04-17T06:10:21.231Z,400.00
2023-04-17T06:11:21.346Z,400.00
2023-04-17T06:12:21.724Z,400.00
2023-04-17T06:13:21.256Z,400.00
2023-04-17T06:14:21.246Z,400.00
2023-04-17T06:15:21.285Z,400.00
2023-04-17T06:16:21.229Z,400.00
2023-04-17T06:17:21.221Z,400.00
2023-04-17T06:18:21.205Z,400.00
2023-04-17T06:19:21.231Z,400.00
2023-04-17T06:20:21.211Z,400.00
2023-04-17T06:21:21.236Z,401.00
2023-04-17T06:22:21.150Z,400.00
2023-04-17T06:23:21.193Z,400.00
2023-04-17T06:24:21.344Z,400.00
2023-04-17T06:25:21.165Z,400.00
2023-04-17T06:26:21.153Z,400.00
2023-04-17T06:27:21.152Z,400.00
2023-04-17T06:28:21.085Z,400.00
2023-04-17T06:29:21.114Z,400.00
2023-04-17T06:30:21.194Z,400.00
2023-04-17T06:31:21.222Z,400.00
2023-04-17T06:32:21.104Z,400.00
2023-04-17T06:33:21.052Z,401.00
2023-04-17T06:34:21.092Z,400.00
2023-04-17T06:35:21.115Z,400.00
2023-04-17T06:36:21.114Z,400.00
2023-04-17T06:37:21.179Z,462.00
2023-04-17T06:38:21.040Z,500.00
2023-04-17T06:39:21.399Z,400.00
2023-04-17T06:40:21.067Z,400.00
2023-04-17T06:41:21.038Z,423.00
2023-04-17T06:42:21.082Z,407.00
2023-04-17T06:43:21.789Z,400.00
2023-04-17T06:44:21.745Z,400.00
2023-04-17T06:45:21.318Z,430.00
2023-04-17T06:46:20.998Z,470.00
2023-04-17T06:47:20.979Z,438.00
2023-04-17T06:48:20.968Z,455.00
2023-04-17T06:49:20.924Z,400.00
2023-04-17T06:50:20.957Z,400.00
2023-04-17T06:51:20.988Z,400.00
2023-04-17T06:52:20.947Z,400.00
2023-04-17T06:53:20.942Z,400.00
2023-04-17T06:54:20.919Z,400.00
2023-04-17T06:55:21.403Z,400.00
2023-04-17T06:56:21.037Z,400.00
2023-04-17T06:57:21.007Z,400.00
2023-04-17T06:58:21.018Z,400.00
2023-04-17T06:59:21.017Z,400.00
2023-04-17T07:00:20.997Z,400.00
2023-04-17T07:01:21.097Z,400.00
2023-04-17T07:02:21.274Z,400.00
2023-04-17T07:03:21.146Z,400.00
2023-04-17T07:04:21.200Z,400.00
2023-04-17T07:05:21.096Z,400.00
2023-04-17T07:06:21.039Z,400.00
2023-04-17T07:07:20.942Z,400.00
2023-04-17T07:08:20.922Z,400.00
2023-04-17T07:09:20.865Z,400.00
2023-04-17T07:10:21.065Z,400.00
2023-04-17T07:11:20.892Z,400.00
2023-04-17T07:12:20.863Z,400.00
2023-04-17T07:13:20.904Z,400.00
2023-04-17T07:14:20.893Z,400.00
2023-04-17T07:15:20.934Z,400.00
2023-04-17T07:16:20.994Z,400.00
2023-04-17T07:17:20.923Z,400.00
2023-04-17T07:18:20.818Z,400.00
2023-04-17T07:19:20.818Z,400.00
2023-04-17T07:20:20.827Z,400.00
2023-04-17T07:21:20.828Z,400.00
2023-04-17T07:22:20.900Z,400.00
2023-04-17T07:23:20.840Z,400.00
2023-04-17T07:24:20.764Z,400.00
2023-04-17T07:25:20.869Z,400.00
2023-04-17T07:26:20.822Z,400.00
2023-04-17T07:27:20.772Z,400.00
2023-04-17T07:28:20.782Z,400.00
2023-04-17T07:29:20.846Z,400.00
2023-04-17T07:30:20.765Z,400.00
2023-04-17T07:31:20.835Z,400.00
2023-04-17T07:32:20.692Z,400.00
2023-04-17T07:33:20.781Z,400.00
2023-04-17T07:34:20.859Z,400.00
2023-04-17T07:35:21.411Z,400.00
2023-04-17T07:36:20.736Z,400.00
2023-04-17T07:37:20.777Z,400.00
2023-04-17T07:38:20.744Z,400.00
2023-04-17T07:39:20.722Z,400.00
2023-04-17T07:40:20.859Z,400.00
2023-04-17T07:41:20.754Z,400.00
2023-04-17T07:42:20.673Z,400.00
2023-04-17T07:43:20.967Z,400.00
2023-04-17T07:44:20.695Z,400.00
2023-04-17T07:45:20.689Z,400.00
2023-04-17T07:46:20.734Z,400.00
2023-04-17T07:47:20.785Z,400.00
2023-04-17T07:48:20.780Z,400.00
2023-04-17T07:49:20.613Z,400.00
2023-04-17T07:50:20.626Z,400.00
2023-04-17T07:51:20.634Z,400.00
2023-04-17T07:52:20.637Z,400.00
2023-04-17T07:53:20.720Z,400.00
2023-04-17T07:54:20.655Z,400.00
2023-04-17T07:55:20.563Z,400.00
2023-04-17T07:56:20.725Z,400.00
2023-04-17T07:57:20.594Z,400.00
2023-04-17T07:58:20.588Z,400.00
2023-04-17T07:59:20.657Z,400.00
2023-04-17T08:00:21.605Z,400.00
2023-04-17T08:01:20.663Z,400.00
2023-04-17T08:02:21.409Z,400.00
2023-04-17T08:03:20.982Z,400.00
2023-04-17T08:04:21.554Z,400.00
2023-04-17T08:05:21.360Z,400.00
2023-04-17T08:06:20.975Z,400.00
2023-04-17T08:07:21.763Z,400.00
2023-04-17T08:08:21.011Z,400.00
2023-04-17T08:09:20.935Z,400.00
2023-04-17T08:10:22.392Z,400.00
2023-04-17T08:11:20.834Z,400.00
2023-04-17T08:12:20.985Z,400.00
2023-04-17T08:13:20.864Z,400.00
2023-04-17T08:14:20.733Z,400.00
2023-04-17T08:15:20.890Z,400.00
2023-04-17T08:16:21.796Z,400.00
2023-04-17T08:17:20.818Z,400.00
2023-04-17T08:18:20.867Z,400.00
2023-04-17T08:19:20.969Z,400.00
2023-04-17T08:20:20.881Z,400.00
2023-04-17T08:21:20.786Z,400.00
2023-04-17T08:22:20.818Z,400.00
2023-04-17T08:23:20.621Z,400.00
2023-04-17T08:24:20.799Z,400.00
2023-04-17T08:25:21.784Z,400.00
2023-04-17T08:26:20.959Z,400.00
2023-04-17T08:27:21.446Z,400.00
2023-04-17T08:28:20.752Z,400.00
2023-04-17T08:29:21.374Z,400.00
2023-04-17T08:30:21.377Z,400.00
2023-04-17T08:31:20.795Z,400.00
2023-04-17T08:32:20.630Z,400.00
2023-04-17T08:33:21.222Z,400.00
2023-04-17T08:34:20.611Z,400.00
2023-04-17T08:35:20.934Z,400.00
2023-04-17T08:36:21.003Z,400.00
2023-04-17T08:37:20.629Z,400.00
2023-04-17T08:38:21.355Z,400.00
2023-04-17T08:39:20.552Z,400.00
2023-04-17T08:40:21.779Z,400.00
2023-04-17T08:41:20.562Z,400.00
2023-04-17T08:42:20.572Z,400.00
2023-04-17T08:43:20.581Z,400.00
2023-04-17T08:44:20.611Z,400.00
2023-04-17T08:45:21.320Z,400.00
2023-04-17T08:46:20.653Z,400.00
2023-04-17T08:47:24.408Z,400.00
2023-04-17T08:48:20.587Z,400.00
2023-04-17T08:49:20.573Z,400.00
2023-04-17T08:50:20.563Z,400.00
2023-04-17T08:51:20.528Z,400.00
2023-04-17T08:52:20.601Z,400.00
2023-04-17T08:53:20.549Z,400.00
2023-04-17T08:54:20.462Z,400.00
2023-04-17T08:55:20.544Z,400.00
2023-04-17T08:56:20.469Z,400.00
2023-04-17T08:57:20.476Z,400.00
2023-04-17T08:58:20.478Z,400.00
2023-04-17T08:59:20.464Z,400.00
2023-04-17T09:00:20.588Z,400.00
2023-04-17T09:01:21.690Z,400.00
2023-04-17T09:02:20.703Z,400.00
2023-04-17T09:03:20.746Z,400.00
2023-04-17T09:04:20.804Z,400.00
2023-04-17T09:05:20.618Z,400.00
2023-04-17T09:06:21.480Z,400.00
2023-04-17T09:07:20.508Z,400.00
2023-04-17T09:08:20.573Z,400.00
2023-04-17T09:09:20.566Z,400.00
2023-04-17T09:10:20.869Z,400.00
2023-04-17T09:11:20.670Z,400.00
2023-04-17T09:12:20.756Z,400.00
2023-04-17T09:13:20.651Z,400.00
2023-04-17T09:14:21.833Z,400.00
2023-04-17T09:15:20.574Z,400.00
2023-04-17T09:16:21.577Z,400.00
2023-04-17T09:17:20.595Z,400.00
2023-04-17T09:18:20.653Z,400.00
2023-04-17T09:19:20.573Z,400.00
2023-04-17T09:20:20.728Z,400.00
2023-04-17T09:21:21.040Z,400.00
2023-04-17T09:22:20.845Z,400.00
2023-04-17T09:23:20.768Z,400.00
2023-04-17T09:24:20.818Z,400.00
2023-04-17T09:25:20.757Z,400.00
2023-04-17T09:26:20.973Z,400.00
2023-04-17T09:27:20.709Z,400.00
2023-04-17T09:28:20.698Z,400.00
2023-04-17T09:29:20.765Z,400.00
2023-04-17T09:30:20.692Z,400.00
2023-04-17T09:31:20.713Z,400.00
2023-04-17T09:32:20.787Z,400.00
2023-04-17T09:33:20.678Z,400.00
2023-04-17T09:34:20.972Z,400.00
2023-04-17T09:35:20.622Z,400.00
2023-04-17T09:36:22.058Z,400.00
2023-04-17T09:37:20.596Z,400.00
2023-04-17T09:38:20.639Z,400.00
2023-04-17T09:39:20.960Z,400.00
2023-04-17T09:40:20.630Z,400.00
2023-04-17T09:41:20.955Z,400.00
2023-04-17T09:42:20.831Z,400.00
2023-04-17T09:43:20.653Z,400.00
2023-04-17T09:44:20.655Z,400.00
2023-04-17T09:45:20.672Z,400.00
2023-04-17T09:46:20.924Z,400.00
2023-04-17T09:47:20.626Z,400.00
2023-04-17T09:48:20.584Z,400.00
2023-04-17T09:49:20.527Z,400.00
2023-04-17T09:50:20.705Z,400.00
2023-04-17T09:51:20.993Z,400.00
2023-04-17T09:52:20.849Z,400.00
2023-04-17T09:53:21.566Z,400.00
2023-04-17T09:54:20.659Z,400.00
2023-04-17T09:55:20.681Z,400.00
2023-04-17T09:56:20.666Z,400.00
2023-04-17T09:57:20.474Z,400.00
2023-04-17T09:58:20.574Z,400.00
2023-04-17T09:59:20.540Z,400.00
2023-04-17T10:00:20.520Z,400.00
2023-04-17T10:01:20.654Z,400.00
2023-04-17T10:02:20.627Z,400.00
2023-04-17T10:03:20.618Z,400.00
2023-04-17T10:04:20.647Z,400.00
2023-04-17T10:05:20.443Z,400.00
2023-04-17T10:06:20.438Z,400.00
2023-04-17T10:07:20.388Z,400.00
2023-04-17T10:08:20.505Z,400.00
2023-04-17T10:09:20.448Z,400.00
2023-04-17T10:10:20.431Z,400.00
2023-04-17T10:11:20.450Z,400.00
2023-04-17T10:12:20.461Z,400.00
2023-04-17T10:13:20.478Z,400.00
2023-04-17T10:14:21.327Z,400.00
2023-04-17T10:15:20.449Z,400.00
2023-04-17T10:16:21.067Z,400.00
2023-04-17T10:17:20.401Z,400.00
2023-04-17T10:18:21.041Z,400.00
2023-04-17T10:19:21.289Z,400.00
2023-04-17T10:20:20.471Z,400.00
2023-04-17T10:21:20.495Z,400.00
2023-04-17T10:22:20.442Z,400.00
2023-04-17T10:23:20.354Z,400.00
2023-04-17T10:24:20.364Z,400.00
2023-04-17T10:25:20.380Z,400.00
2023-04-17T10:26:20.470Z,400.00
2023-04-17T10:27:20.337Z,400.00
2023-04-17T10:28:20.327Z,400.00
2023-04-17T10:29:20.799Z,400.00
2023-04-17T10:31:20.427Z,400.00
2023-04-17T10:32:20.349Z,400.00
2023-04-17T10:33:20.330Z,400.00
2023-04-17T10:34:20.268Z,400.00
2023-04-17T10:35:20.291Z,400.00
2023-04-17T10:36:20.455Z,400.00
2023-04-17T10:37:20.297Z,400.00
2023-04-17T10:38:20.236Z,400.00
2023-04-17T10:39:20.363Z,400.00
2023-04-17T10:40:21.360Z,400.00
2023-04-17T10:41:20.569Z,400.00
2023-04-17T10:42:20.369Z,400.00
2023-04-17T10:43:20.273Z,400.00
2023-04-17T10:44:20.284Z,400.00
2023-04-17T10:45:20.840Z,400.00
2023-04-17T10:46:20.474Z,400.00
2023-04-17T10:47:20.370Z,400.00
2023-04-17T10:48:20.305Z,400.00
2023-04-17T10:49:20.297Z,400.00
2023-04-17T10:50:20.288Z,400.00
2023-04-17T10:51:20.310Z,400.00
2023-04-17T10:52:20.213Z,400.00
2023-04-17T10:53:20.229Z,400.00
2023-04-17T10:54:20.223Z,400.00
2023-04-17T10:55:20.225Z,400.00
2023-04-17T10:56:20.572Z,400.00
2023-04-17T10:57:20.341Z,400.00
2023-04-17T10:58:20.955Z,400.00
2023-04-17T10:59:20.345Z,400.00
2023-04-17T11:00:20.202Z,400.00
2023-04-17T11:01:20.462Z,400.00
2023-04-17T11:02:20.318Z,400.00
2023-04-17T11:03:20.410Z,400.00
2023-04-17T11:04:20.215Z,400.00
2023-04-17T11:05:20.179Z,400.00
2023-04-17T11:06:20.900Z,400.00
2023-04-17T11:07:20.143Z,400.00
2023-04-17T11:08:20.171Z,400.00
2023-04-17T11:09:20.220Z,400.00
2023-04-17T11:10:20.183Z,400.00
2023-04-17T11:11:26.923Z,400.00
2023-04-17T11:12:20.128Z,400.00
2023-04-17T11:13:20.164Z,400.00
2023-04-17T11:14:20.184Z,400.00
2023-04-17T11:15:20.157Z,400.00
2023-04-17T11:16:20.423Z,400.00
2023-04-17T11:17:20.235Z,400.00
2023-04-17T11:18:20.205Z,400.00
2023-04-17T11:19:20.082Z,400.00
2023-04-17T11:20:20.023Z,400.00
2023-04-17T11:21:20.437Z,400.00
2023-04-17T11:22:20.111Z,400.00
2023-04-17T11:23:20.049Z,400.00
2023-04-17T11:24:20.079Z,400.00
2023-04-17T11:25:20.133Z,400.00
2023-04-17T11:26:20.456Z,400.00
2023-04-17T11:27:20.147Z,400.00
2023-04-17T11:28:20.248Z,400.00
2023-04-17T11:29:20.219Z,400.00
2023-04-17T11:30:20.292Z,400.00
2023-04-17T11:31:21.545Z,400.00
2023-04-17T11:32:20.395Z,400.00
2023-04-17T11:33:20.691Z,419.00
2023-04-17T11:34:20.564Z,477.00
2023-04-17T11:35:20.500Z,407.00
2023-04-17T11:36:21.390Z,400.00
2023-04-17T11:37:20.400Z,400.00
2023-04-17T11:38:20.390Z,400.00
2023-04-17T11:39:20.439Z,400.00
2023-04-17T11:40:20.535Z,400.00
2023-04-17T11:41:20.476Z,404.00
2023-04-17T11:42:20.563Z,400.00
2023-04-17T11:43:20.470Z,400.00
2023-04-17T11:44:20.364Z,400.00
2023-04-17T11:45:20.300Z,400.00
2023-04-17T11:46:20.326Z,400.00
2023-04-17T11:47:20.344Z,400.00
2023-04-17T11:48:20.295Z,400.00
2023-04-17T11:49:20.325Z,400.00
2023-04-17T11:50:20.227Z,400.00
2023-04-17T11:51:20.229Z,400.00
2023-04-17T11:52:20.307Z,400.00
2023-04-17T11:53:20.148Z,400.00
2023-04-17T11:54:20.222Z,400.00
2023-04-17T11:55:20.338Z,400.00
2023-04-17T11:56:20.302Z,400.00
2023-04-17T11:57:20.248Z,400.00
2023-04-17T11:58:20.213Z,400.00
2023-04-17T11:59:20.231Z,400.00
2023-04-17T12:00:20.252Z,400.00
2023-04-17T12:01:20.127Z,400.00
2023-04-17T12:02:20.343Z,400.00
2023-04-17T12:03:20.271Z,400.00
2023-04-17T12:04:20.278Z,400.00
2023-04-17T12:05:21.463Z,400.00
2023-04-17T12:06:20.893Z,400.00
2023-04-17T12:07:20.196Z,400.00
2023-04-17T12:08:20.146Z,400.00
2023-04-17T12:09:20.123Z,400.00
2023-04-17T12:10:20.210Z,400.00
2023-04-17T12:11:20.168Z,400.00
2023-04-17T12:12:20.159Z,400.00
2023-04-17T12:13:20.137Z,400.00
2023-04-17T12:14:20.127Z,400.00
2023-04-17T12:15:20.068Z,400.00
2023-04-17T12:16:20.170Z,400.00
2023-04-17T12:17:20.170Z,400.00
2023-04-17T12:18:20.074Z,400.00
2023-04-17T12:19:20.085Z,400.00
2023-04-17T12:20:20.090Z,400.00
2023-04-17T12:21:20.105Z,400.00
2023-04-17T12:22:20.117Z,400.00
2023-04-17T12:23:20.039Z,400.00